Terminal Aerodrome Forecast
Issued by NWS

Home | Current Version | Previous Version | Text Only | Print | Product List | Glossary On
Versions: 1 2 3 4 5 6 7 8 9 10 11 12
000
FTUS46 KLOX 301700 RRA
TAFPMD
TAF
KPMD 301743Z 3018/3118 00000KT P6SM BKN200
     FM302100 25012KT P6SM SCT150 BKN200
     FM310200 25006KT P6SM SCT120 BKN180
     FM310800 25012KT P6SM BKN120=

USA.gov is the U.S. government's official web portal to all federal, state and local government web resources and services.